createdAt,value
2023-01-06T00:00:23.553Z,8.90
2023-01-06T00:02:49.985Z,7.50
2023-01-06T00:05:16.476Z,9.27
2023-01-06T00:07:44.147Z,8.88
2023-01-06T00:10:11.558Z,7.13
2023-01-06T00:12:38.189Z,8.00
2023-01-06T00:15:05.070Z,8.63
2023-01-06T00:17:31.488Z,8.00
2023-01-06T00:19:58.323Z,8.50
2023-01-06T00:22:24.723Z,7.60
2023-01-06T00:24:51.131Z,6.50
2023-01-06T00:27:17.534Z,6.47
2023-01-06T00:29:43.971Z,8.50
2023-01-06T00:32:10.390Z,6.40
2023-01-06T00:34:36.806Z,8.88
2023-01-06T00:37:04.081Z,7.43
2023-01-06T00:39:30.508Z,7.40
2023-01-06T00:42:06.583Z,7.22
2023-01-06T00:44:39.922Z,5.97
2023-01-06T00:47:08.364Z,7.32
2023-01-06T00:49:35.112Z,8.98
2023-01-06T00:52:01.534Z,8.43
2023-01-06T00:54:27.977Z,8.95
2023-01-06T00:56:54.811Z,6.40
2023-01-06T00:59:23.347Z,7.30
2023-01-06T01:01:51.994Z,7.38
2023-01-06T01:04:19.117Z,7.90
2023-01-06T01:06:47.030Z,8.75
2023-01-06T01:09:16.947Z,8.57
2023-01-06T01:12:01.984Z,7.15
2023-01-06T01:14:28.410Z,7.30
2023-01-06T01:16:54.826Z,8.30
2023-01-06T01:19:23.781Z,7.25
2023-01-06T01:21:50.285Z,7.68
2023-01-06T01:24:17.022Z,8.63
2023-01-06T01:26:43.485Z,10.32
2023-01-06T01:29:12.163Z,10.60
2023-01-06T01:31:38.594Z,7.32
2023-01-06T01:34:04.995Z,8.30
2023-01-06T01:36:31.495Z,9.15
2023-01-06T01:38:58.053Z,8.13
2023-01-06T01:41:26.036Z,7.00
2023-01-06T01:43:56.130Z,7.57
2023-01-06T01:46:25.202Z,7.32
2023-01-06T01:48:53.051Z,8.18
2023-01-06T01:51:23.725Z,8.65
2023-01-06T01:53:52.531Z,9.35
2023-01-06T01:56:24.080Z,8.55
2023-01-06T01:59:03.781Z,8.23
2023-01-06T02:01:31.143Z,9.50
2023-01-06T02:03:57.912Z,11.98
2023-01-06T02:06:25.122Z,10.73
2023-01-06T02:09:12.354Z,10.15
2023-01-06T02:11:39.177Z,11.10
2023-01-06T02:14:10.729Z,9.90
2023-01-06T02:17:14.763Z,11.77
2023-01-06T02:20:07.649Z,9.13
2023-01-06T02:23:04.332Z,8.68
2023-01-06T02:25:56.524Z,8.70
2023-01-06T02:28:38.011Z,10.45
2023-01-06T02:31:13.401Z,9.77
2023-01-06T02:33:54.966Z,15.23
2023-01-06T02:36:44.951Z,10.13
2023-01-06T02:39:45.534Z,13.77
2023-01-06T02:42:24.719Z,13.50
2023-01-06T02:45:02.712Z,12.25
2023-01-06T02:47:48.023Z,15.25
2023-01-06T02:50:46.685Z,14.65
2023-01-06T02:53:31.412Z,11.20
2023-01-06T02:55:58.333Z,12.57
2023-01-06T02:58:40.363Z,13.32
2023-01-06T03:01:12.207Z,14.85
2023-01-06T03:03:41.798Z,19.50
2023-01-06T03:06:10.424Z,12.18
2023-01-06T03:08:37.152Z,12.40
2023-01-06T03:11:03.740Z,12.80
2023-01-06T03:13:46.994Z,10.35
2023-01-06T03:16:14.107Z,11.15
2023-01-06T03:18:42.824Z,12.20
2023-01-06T03:21:12.496Z,12.52
2023-01-06T03:23:40.695Z,10.45
2023-01-06T03:26:07.826Z,14.82
2023-01-06T03:28:34.238Z,12.60
2023-01-06T03:31:12.773Z,12.55
2023-01-06T03:33:54.066Z,12.40
2023-01-06T03:36:43.234Z,12.38
2023-01-06T03:39:15.064Z,12.13
2023-01-06T03:42:02.681Z,11.50
2023-01-06T03:44:59.115Z,17.38
2023-01-06T03:47:31.320Z,13.95
2023-01-06T03:50:12.913Z,13.00
2023-01-06T03:52:46.278Z,11.55
2023-01-06T03:55:18.177Z,14.88
2023-01-06T03:57:47.153Z,12.27
2023-01-06T04:00:19.564Z,16.30
2023-01-06T04:02:46.367Z,15.90
2023-01-06T04:05:13.908Z,14.40
2023-01-06T04:07:41.403Z,14.02
2023-01-06T04:10:08.411Z,9.80
2023-01-06T04:12:41.034Z,11.85
2023-01-06T04:15:13.294Z,14.48
2023-01-06T04:17:40.850Z,14.68
2023-01-06T04:20:09.763Z,13.88
2023-01-06T04:22:36.658Z,12.27
2023-01-06T04:25:03.420Z,14.10
2023-01-06T04:27:29.829Z,13.48
2023-01-06T04:29:56.280Z,12.52
2023-01-06T04:32:22.799Z,14.27
2023-01-06T04:34:49.269Z,11.75
2023-01-06T04:37:15.715Z,14.27
2023-01-06T04:39:42.167Z,14.90
2023-01-06T04:42:08.653Z,14.55
2023-01-06T04:44:35.087Z,11.20
2023-01-06T04:47:01.509Z,11.52
2023-01-06T04:49:27.924Z,12.15
2023-01-06T04:51:54.316Z,13.07
2023-01-06T04:54:20.731Z,13.90
2023-01-06T04:56:47.166Z,16.88
2023-01-06T04:59:13.596Z,12.52
2023-01-06T05:01:40.154Z,13.18
2023-01-06T05:04:07.367Z,15.10
2023-01-06T05:06:34.089Z,12.65
2023-01-06T05:09:00.510Z,13.45
2023-01-06T05:11:27.629Z,11.35
2023-01-06T05:13:54.490Z,11.95
2023-01-06T05:16:25.407Z,11.10
2023-01-06T05:18:52.462Z,9.88
2023-01-06T05:21:18.903Z,13.20
2023-01-06T05:23:45.497Z,11.35
2023-01-06T05:26:17.084Z,10.98
2023-01-06T05:28:43.920Z,12.68
2023-01-06T05:31:11.210Z,13.63
2023-01-06T05:33:37.748Z,10.25
2023-01-06T05:36:09.449Z,9.75
2023-01-06T05:38:35.882Z,10.35
2023-01-06T05:41:02.811Z,10.60
2023-01-06T05:43:29.458Z,11.35
2023-01-06T05:45:56.350Z,10.90
2023-01-06T05:48:27.238Z,9.98
2023-01-06T05:51:00.689Z,8.07
2023-01-06T05:53:27.091Z,11.68
2023-01-06T05:55:53.491Z,13.65
2023-01-06T05:58:19.942Z,7.57
2023-01-06T06:00:46.368Z,7.45
2023-01-06T06:03:12.773Z,11.32
2023-01-06T06:05:39.181Z,12.32
2023-01-06T06:08:06.768Z,9.25
2023-01-06T06:10:33.244Z,7.18
2023-01-06T06:12:59.806Z,7.85
2023-01-06T06:15:26.224Z,10.00
2023-01-06T06:17:52.623Z,8.80
2023-01-06T06:20:19.264Z,7.57
2023-01-06T06:22:45.694Z,9.38
2023-01-06T06:25:12.230Z,7.40
2023-01-06T06:27:38.634Z,6.72
2023-01-06T06:30:08.336Z,6.72
2023-01-06T06:32:34.734Z,6.55
2023-01-06T06:35:01.143Z,7.05
2023-01-06T06:37:27.527Z,4.38
2023-01-06T06:39:53.939Z,5.88
2023-01-06T06:42:20.525Z,7.22
2023-01-06T06:44:46.954Z,3.72
2023-01-06T06:47:15.794Z,6.30
2023-01-06T06:49:43.212Z,5.80
2023-01-06T06:52:09.786Z,5.30
2023-01-06T06:54:36.209Z,5.10
2023-01-06T06:57:02.602Z,4.40
2023-01-06T06:59:29.021Z,6.72
2023-01-06T07:01:55.514Z,6.82
2023-01-06T07:04:22.035Z,4.25
2023-01-06T07:06:48.523Z,5.18
2023-01-06T07:09:14.975Z,4.65
2023-01-06T07:11:41.389Z,4.72
2023-01-06T07:14:07.795Z,9.20
2023-01-06T07:16:34.204Z,5.93
2023-01-06T07:19:00.612Z,3.70
2023-01-06T07:21:27.032Z,7.22
2023-01-06T07:23:53.549Z,3.90
2023-01-06T07:26:19.980Z,4.30
2023-01-06T07:28:46.616Z,7.00
2023-01-06T07:31:13.156Z,4.32
2023-01-06T07:33:39.605Z,4.20
2023-01-06T07:36:06.379Z,4.40
2023-01-06T07:38:32.798Z,6.32
2023-01-06T07:41:00.612Z,7.00
2023-01-06T07:43:27.070Z,6.35
2023-01-06T07:45:53.803Z,5.13
2023-01-06T07:48:20.257Z,4.22
2023-01-06T07:50:46.668Z,7.68
2023-01-06T07:53:13.663Z,5.25
2023-01-06T07:55:40.069Z,3.97
2023-01-06T07:58:09.913Z,4.40
2023-01-06T08:00:36.930Z,3.72
2023-01-06T08:03:06.127Z,2.45
2023-01-06T08:05:32.917Z,2.15
2023-01-06T08:07:59.334Z,3.45
2023-01-06T08:10:25.746Z,3.20
2023-01-06T08:12:52.149Z,2.70
2023-01-06T08:15:18.591Z,4.13
2023-01-06T08:17:45.003Z,2.15
2023-01-06T08:20:11.515Z,2.55
2023-01-06T08:22:38.925Z,2.88
2023-01-06T08:25:05.586Z,2.25
2023-01-06T08:27:32.005Z,1.95
2023-01-06T08:29:58.406Z,2.55
2023-01-06T08:32:24.817Z,2.15
2023-01-06T08:34:51.243Z,3.15
2023-01-06T08:37:17.664Z,1.83
2023-01-06T08:39:44.385Z,1.60
2023-01-06T08:42:10.881Z,2.45
2023-01-06T08:44:37.434Z,1.83
2023-01-06T08:47:04.076Z,1.70
2023-01-06T08:49:30.515Z,2.28
2023-01-06T08:51:56.954Z,1.98
2023-01-06T08:54:23.383Z,1.77
2023-01-06T08:56:49.814Z,1.70
2023-01-06T08:59:17.284Z,2.55
2023-01-06T09:01:44.369Z,3.38
2023-01-06T09:04:11.112Z,1.83
2023-01-06T09:06:39.048Z,1.95
2023-01-06T09:09:07.596Z,2.20
2023-01-06T09:11:34.185Z,2.10
2023-01-06T09:14:00.858Z,2.55
2023-01-06T09:16:27.384Z,3.13
2023-01-06T09:18:54.818Z,2.35
2023-01-06T09:21:22.386Z,2.33
2023-01-06T09:23:48.942Z,2.33
2023-01-06T09:26:16.282Z,1.85
2023-01-06T09:28:42.976Z,3.83
2023-01-06T09:31:09.663Z,4.78
2023-01-06T09:33:36.540Z,3.28
2023-01-06T09:36:03.110Z,3.25
2023-01-06T09:38:29.790Z,2.60
2023-01-06T09:41:05.103Z,2.60
2023-01-06T09:43:59.156Z,3.13
2023-01-06T09:46:29.769Z,2.95
2023-01-06T09:48:59.616Z,6.43
2023-01-06T09:51:27.776Z,2.15
2023-01-06T09:53:58.590Z,3.15
2023-01-06T09:56:25.611Z,2.70
2023-01-06T09:59:07.530Z,3.15
2023-01-06T10:01:41.296Z,4.18
2023-01-06T10:04:18.350Z,3.85
2023-01-06T10:06:55.683Z,3.45
2023-01-06T10:09:43.985Z,2.63
2023-01-06T10:12:30.337Z,3.00
2023-01-06T10:15:34.107Z,2.58
2023-01-06T10:18:22.389Z,1.98
2023-01-06T10:21:03.036Z,2.05
2023-01-06T10:23:48.282Z,3.30
2023-01-06T10:26:43.726Z,3.17
2023-01-06T10:29:17.213Z,3.55
2023-01-06T10:31:45.572Z,1.60
2023-01-06T10:34:24.919Z,1.98
2023-01-06T10:37:12.989Z,1.50
2023-01-06T10:39:40.752Z,2.72
2023-01-06T10:42:57.439Z,2.42
2023-01-06T10:45:27.560Z,2.47
2023-01-06T10:47:54.367Z,2.35
2023-01-06T10:50:21.123Z,2.00
2023-01-06T10:52:48.372Z,1.67
2023-01-06T10:55:29.358Z,1.15
2023-01-06T10:58:01.336Z,2.08
2023-01-06T11:00:27.857Z,2.45
2023-01-06T11:03:31.290Z,1.55
2023-01-06T11:06:02.944Z,2.15
2023-01-06T11:08:30.024Z,1.73
2023-01-06T11:10:57.529Z,1.88
2023-01-06T11:13:34.771Z,1.75
2023-01-06T11:16:28.458Z,1.73
2023-01-06T11:18:57.316Z,2.92
2023-01-06T11:21:37.586Z,1.75
2023-01-06T11:24:20.792Z,3.10
2023-01-06T11:26:53.117Z,1.08
2023-01-06T11:29:25.643Z,0.65
2023-01-06T11:31:52.188Z,0.93
2023-01-06T11:34:28.900Z,0.80
2023-01-06T11:36:56.016Z,2.45
2023-01-06T11:39:34.350Z,1.20
2023-01-06T11:42:13.534Z,0.50
2023-01-06T11:44:43.476Z,0.93
2023-01-06T11:47:23.083Z,0.65
2023-01-06T11:49:54.791Z,1.05
2023-01-06T11:52:25.135Z,1.52
2023-01-06T11:55:21.496Z,0.70
2023-01-06T11:57:55.896Z,1.52
2023-01-06T12:00:34.410Z,0.93
2023-01-06T12:03:17.653Z,1.30
2023-01-06T12:05:51.515Z,0.63
2023-01-06T12:08:21.771Z,1.00
2023-01-06T12:10:55.299Z,0.60
2023-01-06T12:13:21.777Z,0.50
2023-01-06T12:15:56.824Z,0.47
2023-01-06T12:18:28.300Z,0.55
2023-01-06T12:20:55.665Z,1.20
2023-01-06T12:23:34.909Z,0.95
2023-01-06T12:26:04.982Z,1.20
2023-01-06T12:28:34.257Z,0.60
2023-01-06T12:31:10.830Z,0.65
2023-01-06T12:33:52.278Z,0.60
2023-01-06T12:36:33.924Z,1.92
2023-01-06T12:39:11.268Z,0.93
2023-01-06T12:41:51.616Z,0.40
2023-01-06T12:44:36.273Z,0.90
2023-01-06T12:47:24.891Z,0.73
2023-01-06T12:50:05.387Z,0.50
2023-01-06T12:52:44.523Z,0.57
2023-01-06T12:55:29.691Z,0.55
2023-01-06T12:58:31.372Z,0.50
2023-01-06T13:01:01.632Z,1.08
2023-01-06T13:03:50.080Z,0.40
2023-01-06T13:06:39.232Z,0.90
2023-01-06T13:09:23.207Z,0.73
2023-01-06T13:12:20.563Z,0.32
2023-01-06T13:15:00.818Z,0.65
2023-01-06T13:17:29.001Z,0.63
2023-01-06T13:20:02.551Z,0.30
2023-01-06T13:22:44.443Z,1.52
2023-01-06T13:25:28.274Z,0.70
2023-01-06T13:28:16.609Z,0.57
2023-01-06T13:30:54.785Z,1.75
2023-01-06T13:33:39.775Z,0.38
2023-01-06T13:36:27.139Z,0.30
2023-01-06T13:39:10.542Z,1.35
2023-01-06T13:41:39.586Z,0.75
2023-01-06T13:44:14.895Z,0.50
2023-01-06T13:46:41.755Z,0.57
2023-01-06T13:49:08.229Z,1.60
2023-01-06T13:51:36.476Z,0.93
2023-01-06T13:54:03.217Z,1.75
2023-01-06T13:56:34.155Z,2.35
2023-01-06T13:59:23.878Z,1.95
2023-01-06T14:01:51.558Z,0.50
2023-01-06T14:04:33.322Z,0.57
2023-01-06T14:07:00.535Z,0.75
2023-01-06T14:09:27.448Z,0.77
2023-01-06T14:11:54.480Z,0.65
2023-01-06T14:14:28.303Z,0.80
2023-01-06T14:16:55.821Z,0.73
2023-01-06T14:19:25.359Z,0.70
2023-01-06T14:21:54.682Z,0.60
2023-01-06T14:24:54.650Z,0.65
2023-01-06T14:27:59.937Z,0.73
2023-01-06T14:30:34.421Z,0.95
2023-01-06T14:33:08.289Z,0.80
2023-01-06T14:35:43.725Z,1.05
2023-01-06T14:38:22.718Z,0.70
2023-01-06T14:41:17.309Z,0.80
2023-01-06T14:43:55.481Z,0.90
2023-01-06T14:46:28.009Z,0.80
2023-01-06T14:49:01.195Z,1.58
2023-01-06T14:51:29.124Z,1.08
2023-01-06T14:53:59.933Z,1.33
2023-01-06T14:56:29.024Z,0.70
2023-01-06T14:59:09.234Z,0.82
2023-01-06T15:01:37.850Z,0.82
2023-01-06T15:04:04.664Z,0.75
2023-01-06T15:06:31.967Z,0.95
2023-01-06T15:09:24.754Z,0.82
2023-01-06T15:11:51.430Z,1.00
2023-01-06T15:14:29.347Z,1.05
2023-01-06T15:16:57.227Z,1.02
2023-01-06T15:19:24.401Z,1.05
2023-01-06T15:21:52.439Z,1.13
2023-01-06T15:24:24.339Z,1.00
2023-01-06T15:26:56.159Z,1.20
2023-01-06T15:29:25.220Z,1.60
2023-01-06T15:31:53.018Z,2.28
2023-01-06T15:34:32.592Z,1.75
2023-01-06T15:37:00.805Z,2.45
2023-01-06T15:39:29.000Z,2.08
2023-01-06T15:41:56.235Z,1.80
2023-01-06T15:44:31.032Z,1.67
2023-01-06T15:47:12.615Z,2.78
2023-01-06T15:49:48.191Z,3.60
2023-01-06T15:52:24.575Z,2.40
2023-01-06T15:54:51.690Z,3.65
2023-01-06T15:57:18.149Z,3.75
2023-01-06T15:59:53.585Z,5.15
2023-01-06T16:02:23.888Z,3.58
2023-01-06T16:04:51.173Z,3.00
2023-01-06T16:07:22.221Z,3.50
2023-01-06T16:09:48.854Z,3.50
2023-01-06T16:12:16.436Z,3.38
2023-01-06T16:14:46.100Z,4.78
2023-01-06T16:17:20.432Z,3.70
2023-01-06T16:19:59.641Z,3.53
2023-01-06T16:22:29.475Z,5.68
2023-01-06T16:24:55.947Z,6.32
2023-01-06T16:27:24.779Z,4.72
2023-01-06T16:30:09.036Z,3.97
2023-01-06T16:32:38.637Z,3.72
2023-01-06T16:35:11.228Z,4.20
2023-01-06T16:37:37.648Z,3.67
2023-01-06T16:40:04.564Z,4.53
2023-01-06T16:42:44.460Z,3.50
2023-01-06T16:45:32.265Z,3.90
2023-01-06T16:47:59.038Z,3.97
2023-01-06T16:50:34.345Z,4.18
2023-01-06T16:53:12.392Z,4.50
2023-01-06T16:55:40.287Z,4.38
2023-01-06T16:58:20.686Z,5.00
2023-01-06T17:00:52.220Z,4.20
2023-01-06T17:03:24.231Z,4.20
2023-01-06T17:05:51.367Z,4.63
2023-01-06T17:08:24.711Z,3.47
2023-01-06T17:10:51.119Z,4.07
2023-01-06T17:13:35.741Z,4.55
2023-01-06T17:16:16.809Z,5.20
2023-01-06T17:18:52.522Z,6.70
2023-01-06T17:21:22.198Z,5.93
2023-01-06T17:23:58.141Z,8.13
2023-01-06T17:26:24.971Z,7.22
2023-01-06T17:28:52.878Z,7.15
2023-01-06T17:31:34.412Z,6.45
2023-01-06T17:34:10.079Z,5.38
2023-01-06T17:36:39.047Z,5.45
2023-01-06T17:39:24.809Z,5.97
2023-01-06T17:42:11.370Z,4.72
2023-01-06T17:44:45.833Z,7.22
2023-01-06T17:47:15.181Z,4.68
2023-01-06T17:49:44.344Z,4.28
2023-01-06T17:52:15.651Z,6.30
2023-01-06T17:55:03.166Z,4.03
2023-01-06T17:57:29.577Z,6.93
2023-01-06T17:59:56.096Z,11.45
2023-01-06T18:02:52.491Z,10.18
2023-01-06T18:05:21.894Z,6.93
2023-01-06T18:07:48.296Z,12.90
2023-01-06T18:10:17.258Z,11.57
2023-01-06T18:12:43.684Z,6.22
2023-01-06T18:15:31.446Z,5.13
2023-01-06T18:17:58.125Z,5.25
2023-01-06T18:20:24.532Z,5.60
2023-01-06T18:22:51.043Z,6.47
2023-01-06T18:25:24.210Z,6.00
2023-01-06T18:27:51.511Z,6.70
2023-01-06T18:30:27.867Z,6.65
2023-01-06T18:32:54.351Z,5.38
2023-01-06T18:35:27.707Z,5.38
2023-01-06T18:37:54.808Z,7.38
2023-01-06T18:40:24.049Z,6.93
2023-01-06T18:42:54.741Z,8.40
2023-01-06T18:45:26.146Z,6.63
2023-01-06T18:48:11.223Z,5.60
2023-01-06T18:50:43.357Z,5.35
2023-01-06T18:53:12.683Z,6.00
2023-01-06T18:55:45.463Z,5.85
2023-01-06T18:58:11.820Z,5.93
2023-01-06T19:00:42.318Z,6.90
2023-01-06T19:03:15.392Z,5.60
2023-01-06T19:05:42.536Z,7.68
2023-01-06T19:08:17.932Z,5.57
2023-01-06T19:10:45.936Z,5.85
2023-01-06T19:13:23.847Z,6.40
2023-01-06T19:15:51.263Z,6.18
2023-01-06T19:18:18.466Z,7.07
2023-01-06T19:20:45.971Z,8.52
2023-01-06T19:23:19.890Z,9.18
2023-01-06T19:25:52.985Z,8.25
2023-01-06T19:28:21.944Z,6.53
2023-01-06T19:30:51.659Z,7.03
2023-01-06T19:33:26.775Z,7.03
2023-01-06T19:36:00.635Z,6.50
2023-01-06T19:38:43.037Z,5.90
2023-01-06T19:41:20.035Z,7.07
2023-01-06T19:43:47.720Z,6.50
2023-01-06T19:46:18.923Z,6.75
2023-01-06T19:48:45.803Z,5.93
2023-01-06T19:51:34.409Z,6.25
2023-01-06T19:54:12.216Z,6.25
2023-01-06T19:56:41.518Z,6.65
2023-01-06T19:59:33.506Z,6.28
2023-01-06T20:02:09.202Z,6.55
2023-01-06T20:04:36.615Z,7.05
2023-01-06T20:07:03.673Z,6.95
2023-01-06T20:09:33.239Z,6.50
2023-01-06T20:12:00.174Z,6.00
2023-01-06T20:14:26.634Z,6.43
2023-01-06T20:16:53.156Z,6.80
2023-01-06T20:19:21.526Z,6.40
2023-01-06T20:21:48.124Z,6.32
2023-01-06T20:24:14.695Z,6.28
2023-01-06T20:26:41.428Z,5.95
2023-01-06T20:29:07.914Z,6.50
2023-01-06T20:31:34.548Z,7.30
2023-01-06T20:34:01.028Z,7.20
2023-01-06T20:36:27.512Z,6.60
2023-01-06T20:38:53.975Z,6.68
2023-01-06T20:41:20.443Z,6.25
2023-01-06T20:43:47.016Z,5.97
2023-01-06T20:46:14.668Z,6.00
2023-01-06T20:48:41.395Z,5.97
2023-01-06T20:51:08.280Z,6.55
2023-01-06T20:53:34.798Z,7.35
2023-01-06T20:56:01.343Z,6.85
2023-01-06T20:58:27.829Z,6.03
2023-01-06T21:00:54.365Z,6.40
2023-01-06T21:03:20.845Z,5.93
2023-01-06T21:05:47.417Z,6.32
2023-01-06T21:08:14.127Z,5.88
2023-01-06T21:10:40.580Z,6.10
2023-01-06T21:13:07.040Z,5.97
2023-01-06T21:15:33.540Z,5.43
2023-01-06T21:18:00.034Z,6.32
2023-01-06T21:20:26.515Z,5.63
2023-01-06T21:22:53.028Z,5.82
2023-01-06T21:25:19.930Z,8.40
2023-01-06T21:27:46.448Z,9.07
2023-01-06T21:30:13.631Z,10.97
2023-01-06T21:32:40.136Z,9.90
2023-01-06T21:35:06.874Z,8.18
2023-01-06T21:37:33.320Z,10.40
2023-01-06T21:40:00.962Z,9.77
2023-01-06T21:42:45.934Z,8.80
2023-01-06T21:45:12.448Z,8.02
2023-01-06T21:47:38.916Z,7.97
2023-01-06T21:50:06.029Z,7.57
2023-01-06T21:52:32.496Z,6.88
2023-01-06T21:54:59.209Z,6.20
2023-01-06T21:57:25.672Z,6.33
2023-01-06T21:59:52.177Z,5.90
2023-01-06T22:02:18.710Z,6.45
2023-01-06T22:04:45.281Z,6.78
2023-01-06T22:07:13.090Z,6.22
2023-01-06T22:09:41.085Z,6.00
2023-01-06T22:12:08.925Z,6.80
2023-01-06T22:14:35.869Z,5.27
2023-01-06T22:17:02.591Z,6.95
2023-01-06T22:19:29.731Z,8.95
2023-01-06T22:21:56.438Z,30.15
2023-01-06T22:24:24.127Z,17.15
2023-01-06T22:26:50.663Z,8.47
2023-01-06T22:29:17.167Z,6.80
2023-01-06T22:31:43.635Z,8.20
2023-01-06T22:34:10.124Z,6.70
2023-01-06T22:36:36.602Z,6.63
2023-01-06T22:39:03.632Z,6.25
2023-01-06T22:41:30.085Z,30.35
2023-01-06T22:43:56.624Z,5.95
2023-01-06T22:46:23.179Z,5.95
2023-01-06T22:48:49.711Z,5.93
2023-01-06T22:51:16.373Z,4.95
2023-01-06T22:53:42.862Z,4.43
2023-01-06T22:56:11.088Z,7.80
2023-01-06T22:58:39.028Z,5.80
2023-01-06T23:01:06.913Z,5.60
2023-01-06T23:03:34.041Z,4.90
2023-01-06T23:06:01.659Z,5.00
2023-01-06T23:08:29.824Z,5.00
2023-01-06T23:11:08.193Z,6.80
2023-01-06T23:13:36.478Z,4.97
2023-01-06T23:16:11.356Z,4.80
2023-01-06T23:18:41.506Z,5.77
2023-01-06T23:21:11.656Z,6.88
2023-01-06T23:23:39.454Z,4.53
2023-01-06T23:26:10.937Z,4.80
2023-01-06T23:28:38.173Z,5.35
2023-01-06T23:31:07.186Z,4.93
2023-01-06T23:33:38.873Z,4.88
2023-01-06T23:36:06.284Z,3.63
2023-01-06T23:38:32.849Z,4.80
2023-01-06T23:41:19.760Z,4.35
2023-01-06T23:43:47.015Z,3.33
2023-01-06T23:46:15.828Z,4.30
2023-01-06T23:48:42.798Z,3.67
2023-01-06T23:51:10.205Z,3.70
2023-01-06T23:53:37.468Z,3.87
2023-01-06T23:56:10.302Z,3.77
2023-01-06T23:58:38.210Z,3.73
